createdAt,value
2019-02-27T00:00:30.612Z,5.78
2019-02-27T00:01:30.617Z,5.86
2019-02-27T00:02:30.615Z,6.01
2019-02-27T00:03:30.599Z,6.09
2019-02-27T00:04:34.859Z,6.06
2019-02-27T00:05:30.574Z,5.93
2019-02-27T00:06:30.600Z,5.91
2019-02-27T00:07:30.555Z,5.91
2019-02-27T00:08:30.545Z,5.91
2019-02-27T00:09:32.728Z,5.88
2019-02-27T00:10:30.528Z,6.01
2019-02-27T00:11:30.526Z,5.95
2019-02-27T00:12:30.537Z,6.11
2019-02-27T00:13:30.504Z,6.03
2019-02-27T00:14:31.269Z,5.93
2019-02-27T00:15:30.480Z,6.03
2019-02-27T00:16:30.488Z,5.96
2019-02-27T00:17:30.464Z,5.82
2019-02-27T00:18:30.466Z,5.71
2019-02-27T00:19:31.382Z,5.81
2019-02-27T00:20:30.466Z,5.75
2019-02-27T00:21:30.436Z,5.70
2019-02-27T00:22:30.418Z,5.53
2019-02-27T00:23:30.412Z,5.45
2019-02-27T00:24:30.623Z,5.37
2019-02-27T00:25:30.417Z,5.32
2019-02-27T00:26:30.397Z,5.50
2019-02-27T00:27:30.382Z,5.48
2019-02-27T00:28:30.398Z,5.49
2019-02-27T00:29:30.362Z,5.59
2019-02-27T00:30:30.367Z,5.52
2019-02-27T00:31:30.346Z,5.56
2019-02-27T00:32:30.363Z,5.48
2019-02-27T00:33:30.328Z,5.41
2019-02-27T00:34:32.839Z,5.41
2019-02-27T00:35:30.322Z,5.52
2019-02-27T00:36:30.302Z,5.46
2019-02-27T00:37:30.310Z,5.45
2019-02-27T00:38:30.286Z,5.46
2019-02-27T00:39:31.346Z,5.46
2019-02-27T00:40:30.268Z,5.37
2019-02-27T00:41:30.253Z,5.50
2019-02-27T00:42:33.455Z,5.50
2019-02-27T00:43:30.283Z,5.55
2019-02-27T00:44:33.963Z,5.63
2019-02-27T00:45:30.221Z,5.59
2019-02-27T00:46:30.207Z,5.55
2019-02-27T00:47:30.224Z,5.48
2019-02-27T00:48:30.214Z,5.35
2019-02-27T00:49:32.339Z,5.50
2019-02-27T00:50:30.173Z,5.32
2019-02-27T00:51:30.166Z,5.22
2019-02-27T00:52:30.192Z,5.23
2019-02-27T00:53:30.150Z,5.28
2019-02-27T00:54:38.789Z,5.25
2019-02-27T00:56:34.637Z,5.40
2019-02-27T00:57:34.605Z,5.37
2019-02-27T00:58:34.573Z,5.41
2019-02-27T00:59:34.561Z,5.17
2019-02-27T01:00:38.966Z,5.23
2019-02-27T01:01:34.548Z,5.12
2019-02-27T01:02:34.563Z,5.07
2019-02-27T01:03:34.539Z,4.95
2019-02-27T01:04:35.111Z,5.17
2019-02-27T01:05:34.510Z,5.16
2019-02-27T01:06:34.503Z,5.14
2019-02-27T01:07:34.499Z,5.14
2019-02-27T01:08:34.498Z,5.12
2019-02-27T01:09:34.503Z,5.13
2019-02-27T01:10:34.469Z,5.10
2019-02-27T01:11:34.459Z,5.13
2019-02-27T01:12:34.500Z,5.14
2019-02-27T01:13:34.443Z,5.02
2019-02-27T01:14:36.891Z,5.07
2019-02-27T01:15:34.428Z,4.95
2019-02-27T01:16:34.418Z,4.98
2019-02-27T01:17:34.423Z,5.13
2019-02-27T01:18:34.414Z,5.12
2019-02-27T01:19:38.484Z,5.04
2019-02-27T01:20:34.409Z,4.94
2019-02-27T01:21:34.362Z,5.10
2019-02-27T01:22:34.395Z,5.10
2019-02-27T01:23:34.367Z,5.01
2019-02-27T01:24:34.361Z,4.94
2019-02-27T01:25:34.326Z,4.95
2019-02-27T01:26:34.342Z,4.89
2019-02-27T01:27:37.905Z,5.07
2019-02-27T01:28:34.300Z,5.13
2019-02-27T01:29:34.287Z,4.95
2019-02-27T01:30:34.287Z,5.07
2019-02-27T01:31:34.274Z,5.09
2019-02-27T01:32:34.261Z,4.98
2019-02-27T01:33:37.784Z,5.09
2019-02-27T01:34:34.283Z,5.09
2019-02-27T01:35:34.272Z,4.91
2019-02-27T01:36:34.237Z,4.88
2019-02-27T01:37:34.217Z,4.88
2019-02-27T01:38:37.631Z,4.99
2019-02-27T01:39:34.199Z,4.95
2019-02-27T01:40:34.195Z,4.91
2019-02-27T01:41:34.199Z,4.92
2019-02-27T01:42:34.175Z,4.99
2019-02-27T01:43:34.160Z,5.12
2019-02-27T01:44:34.150Z,5.17
2019-02-27T01:45:34.158Z,5.17
2019-02-27T01:46:34.152Z,5.20
2019-02-27T01:47:36.056Z,5.17
2019-02-27T01:48:34.160Z,5.14
2019-02-27T01:49:34.133Z,5.09
2019-02-27T01:50:34.097Z,5.12
2019-02-27T01:51:34.081Z,5.01
2019-02-27T01:52:34.620Z,4.98
2019-02-27T01:53:34.067Z,4.98
2019-02-27T01:54:34.077Z,4.96
2019-02-27T01:55:34.055Z,4.95
2019-02-27T01:56:34.046Z,4.89
2019-02-27T01:57:34.114Z,4.80
2019-02-27T01:58:34.016Z,4.98
2019-02-27T01:59:34.018Z,4.98
2019-02-27T02:00:34.032Z,4.92
2019-02-27T02:01:34.000Z,4.94
2019-02-27T02:02:34.874Z,4.98
2019-02-27T02:03:33.979Z,4.61
2019-02-27T02:04:33.997Z,4.62
2019-02-27T02:05:33.954Z,4.57
2019-02-27T02:06:33.968Z,4.52
2019-02-27T02:07:33.966Z,4.43
2019-02-27T02:08:33.937Z,4.52
2019-02-27T02:09:33.914Z,4.43
2019-02-27T02:10:33.906Z,4.47
2019-02-27T02:11:35.013Z,4.43
2019-02-27T02:12:33.883Z,4.52
2019-02-27T02:13:33.889Z,4.72
2019-02-27T02:14:33.872Z,4.75
2019-02-27T02:15:33.855Z,4.61
2019-02-27T02:16:34.309Z,4.61
2019-02-27T02:17:33.847Z,4.47
2019-02-27T02:18:33.852Z,4.52
2019-02-27T02:19:33.842Z,4.67
2019-02-27T02:20:33.834Z,4.61
2019-02-27T02:21:34.334Z,4.61
2019-02-27T02:22:33.790Z,4.59
2019-02-27T02:23:33.805Z,4.58
2019-02-27T02:24:33.789Z,4.52
2019-02-27T02:25:33.781Z,4.57
2019-02-27T02:26:35.019Z,4.50
2019-02-27T02:27:33.739Z,4.47
2019-02-27T02:28:33.726Z,4.43
2019-02-27T02:29:33.724Z,4.39
2019-02-27T02:30:33.714Z,4.40
2019-02-27T02:31:33.734Z,4.40
2019-02-27T02:32:33.698Z,4.33
2019-02-27T02:33:33.678Z,4.36
2019-02-27T02:34:39.836Z,4.42
2019-02-27T02:35:33.679Z,4.34
2019-02-27T02:36:33.653Z,4.29
2019-02-27T02:37:36.704Z,4.18
2019-02-27T02:38:33.652Z,4.18
2019-02-27T02:39:33.620Z,4.19
2019-02-27T02:40:33.621Z,4.16
2019-02-27T02:41:33.632Z,4.24
2019-02-27T02:42:33.603Z,4.21
2019-02-27T02:43:39.974Z,4.19
2019-02-27T02:44:33.589Z,4.12
2019-02-27T02:45:33.833Z,4.19
2019-02-27T02:46:33.559Z,4.16
2019-02-27T02:47:33.561Z,4.12
2019-02-27T02:48:33.539Z,4.10
2019-02-27T02:49:33.529Z,4.15
2019-02-27T02:50:33.516Z,4.10
2019-02-27T02:51:33.525Z,4.10
2019-02-27T02:52:40.507Z,4.19
2019-02-27T02:53:33.520Z,4.15
2019-02-27T02:54:37.553Z,4.10
2019-02-27T02:55:33.505Z,4.14
2019-02-27T03:14:03.836Z,3.85
2019-02-27T03:15:03.793Z,3.86
2019-02-27T03:16:04.772Z,3.80
2019-02-27T03:17:03.763Z,3.79
2019-02-27T03:18:03.788Z,3.75
2019-02-27T03:19:06.273Z,3.78
2019-02-27T03:20:03.762Z,3.72
2019-02-27T03:21:03.719Z,3.68
2019-02-27T03:22:04.687Z,3.49
2019-02-27T03:23:03.684Z,3.61
2019-02-27T03:24:03.675Z,3.54
2019-02-27T03:25:07.833Z,3.65
2019-02-27T03:26:03.652Z,3.58
2019-02-27T03:27:03.658Z,3.49
2019-02-27T03:28:04.884Z,3.53
2019-02-27T03:29:03.621Z,3.43
2019-02-27T03:30:03.625Z,3.50
2019-02-27T03:31:03.661Z,3.43
2019-02-27T03:32:03.590Z,3.49
2019-02-27T03:33:03.595Z,3.54
2019-02-27T03:34:08.034Z,3.60
2019-02-27T03:35:03.558Z,3.75
2019-02-27T03:36:04.408Z,3.72
2019-02-27T03:37:03.563Z,3.68
2019-02-27T03:38:03.526Z,3.61
2019-02-27T03:39:03.513Z,3.58
2019-02-27T03:40:03.505Z,3.44
2019-02-27T03:41:03.496Z,3.36
2019-02-27T03:42:03.486Z,3.47
2019-02-27T03:43:07.098Z,3.54
2019-02-27T03:44:03.461Z,3.58
2019-02-27T03:45:03.441Z,3.68
2019-02-27T03:46:06.189Z,3.76
2019-02-27T03:47:03.418Z,3.67
2019-02-27T03:48:03.432Z,3.70
2019-02-27T03:49:04.555Z,3.70
2019-02-27T03:50:03.399Z,3.62
2019-02-27T03:51:03.379Z,3.64
2019-02-27T03:52:03.371Z,3.52
2019-02-27T03:53:03.351Z,3.60
2019-02-27T03:54:03.352Z,3.50
2019-02-27T03:55:03.339Z,3.53
2019-02-27T03:56:08.717Z,3.57
2019-02-27T03:57:03.343Z,3.49
2019-02-27T03:58:03.345Z,3.57
2019-02-27T03:59:06.287Z,3.52
2019-02-27T04:00:03.284Z,3.50
2019-02-27T04:01:03.265Z,3.50
2019-02-27T04:02:06.121Z,3.61
2019-02-27T04:03:03.255Z,3.60
2019-02-27T04:04:03.236Z,3.52
2019-02-27T04:05:07.155Z,3.53
2019-02-27T04:06:03.216Z,3.57
2019-02-27T04:07:03.203Z,3.52
2019-02-27T04:08:07.276Z,3.54
2019-02-27T04:09:03.175Z,3.49
2019-02-27T04:10:03.175Z,3.44
2019-02-27T04:11:05.854Z,3.42
2019-02-27T04:12:03.167Z,3.40
2019-02-27T04:13:03.134Z,3.44
2019-02-27T04:14:05.181Z,3.49
2019-02-27T04:15:03.148Z,3.50
2019-02-27T04:16:03.127Z,3.40
2019-02-27T04:17:07.086Z,3.53
2019-02-27T04:18:03.077Z,3.34
2019-02-27T04:19:04.844Z,3.40
2019-02-27T04:20:03.069Z,3.34
2019-02-27T04:21:03.047Z,3.31
2019-02-27T04:22:03.045Z,3.25
2019-02-27T04:23:03.060Z,3.25
2019-02-27T04:24:03.016Z,3.30
2019-02-27T04:25:03.004Z,3.24
2019-02-27T04:26:05.797Z,3.27
2019-02-27T04:27:02.999Z,3.10
2019-02-27T04:28:02.973Z,3.07
2019-02-27T04:29:04.456Z,2.92
2019-02-27T04:30:02.951Z,2.94
2019-02-27T04:31:02.973Z,2.97
2019-02-27T04:32:02.939Z,2.91
2019-02-27T04:33:02.945Z,2.87
2019-02-27T04:34:02.946Z,2.73
2019-02-27T04:35:05.955Z,2.77
2019-02-27T04:36:02.894Z,2.81
2019-02-27T04:37:02.883Z,2.79
2019-02-27T04:38:02.887Z,2.89
2019-02-27T04:39:03.159Z,2.94
2019-02-27T04:40:02.833Z,2.94
2019-02-27T04:41:02.837Z,3.03
2019-02-27T04:42:02.817Z,2.91
2019-02-27T04:43:02.808Z,2.77
2019-02-27T04:44:05.317Z,2.84
2019-02-27T04:45:02.837Z,2.77
2019-02-27T04:46:02.776Z,2.81
2019-02-27T04:47:02.776Z,2.64
2019-02-27T04:48:02.770Z,2.64
2019-02-27T04:49:04.978Z,2.64
2019-02-27T04:50:02.768Z,2.73
2019-02-27T04:51:02.718Z,2.89
2019-02-27T04:52:02.722Z,2.95
2019-02-27T04:53:02.720Z,3.06
2019-02-27T04:54:06.388Z,3.03
2019-02-27T04:55:02.673Z,3.00
2019-02-27T04:56:02.658Z,2.98
2019-02-27T04:57:02.651Z,2.87
2019-02-27T04:58:02.658Z,2.79
2019-02-27T04:59:02.639Z,2.79
2019-02-27T05:00:02.641Z,2.82
2019-02-27T05:01:02.611Z,2.87
2019-02-27T05:02:02.627Z,2.84
2019-02-27T05:03:02.586Z,2.76
2019-02-27T05:04:02.597Z,2.77
2019-02-27T05:05:12.289Z,2.85
2019-02-27T05:07:07.101Z,2.94
2019-02-27T05:08:07.056Z,2.79
2019-02-27T05:09:07.019Z,2.66
2019-02-27T05:10:07.866Z,2.41
2019-02-27T05:11:07.003Z,2.58
2019-02-27T05:12:07.003Z,2.66
2019-02-27T05:13:07.001Z,2.53
2019-02-27T05:14:07.007Z,2.45
2019-02-27T05:15:06.956Z,2.51
2019-02-27T05:16:06.944Z,2.46
2019-02-27T05:17:06.960Z,2.63
2019-02-27T05:18:07.000Z,2.52
2019-02-27T05:19:06.918Z,2.46
2019-02-27T05:20:11.599Z,2.40
2019-02-27T05:21:06.931Z,2.44
2019-02-27T05:22:06.880Z,2.44
2019-02-27T05:23:06.873Z,2.51
2019-02-27T05:24:07.777Z,2.55
2019-02-27T05:25:06.857Z,2.49
2019-02-27T05:26:06.846Z,2.41
2019-02-27T05:27:06.851Z,2.40
2019-02-27T05:28:06.813Z,2.48
2019-02-27T05:29:06.828Z,2.46
2019-02-27T05:30:15.441Z,2.46
2019-02-27T05:32:11.264Z,2.38
2019-02-27T05:33:11.245Z,2.38
2019-02-27T05:34:13.596Z,2.38
2019-02-27T05:35:11.213Z,2.30
2019-02-27T05:36:11.218Z,2.27
2019-02-27T05:37:11.187Z,2.15
2019-02-27T05:38:11.192Z,2.16
2019-02-27T05:39:11.169Z,2.22
2019-02-27T05:40:11.163Z,2.27
2019-02-27T05:41:11.170Z,2.27
2019-02-27T05:42:13.084Z,2.20
2019-02-27T05:43:13.931Z,2.33
2019-02-27T05:44:11.137Z,2.28
2019-02-27T05:45:11.107Z,2.40
2019-02-27T05:46:11.110Z,2.35
2019-02-27T05:47:11.844Z,2.44
2019-02-27T05:48:11.101Z,2.40
2019-02-27T05:49:11.071Z,2.49
2019-02-27T05:50:11.062Z,2.53
2019-02-27T05:51:11.046Z,2.67
2019-02-27T05:52:11.810Z,2.58
2019-02-27T05:53:11.010Z,2.59
2019-02-27T05:54:10.993Z,2.69
2019-02-27T05:55:10.988Z,2.67
2019-02-27T05:56:15.521Z,2.64
2019-02-27T05:57:10.970Z,2.66
2019-02-27T05:58:10.957Z,2.71
2019-02-27T05:59:10.937Z,2.67
2019-02-27T06:00:10.938Z,2.77
2019-02-27T06:01:10.953Z,2.79
2019-02-27T06:02:11.510Z,2.79
2019-02-27T06:03:10.913Z,2.64
2019-02-27T06:04:10.905Z,2.69
2019-02-27T06:05:10.907Z,2.70
2019-02-27T06:06:11.813Z,2.71
2019-02-27T06:07:10.883Z,2.67
2019-02-27T06:08:10.847Z,2.69
2019-02-27T06:09:10.978Z,2.56
2019-02-27T06:10:10.937Z,2.55
2019-02-27T06:11:10.805Z,2.56
2019-02-27T06:12:10.806Z,2.40
2019-02-27T06:13:14.029Z,2.48
2019-02-27T06:14:10.769Z,2.41
2019-02-27T06:15:10.762Z,2.52
2019-02-27T06:16:10.761Z,2.44
2019-02-27T06:17:12.812Z,2.56
2019-02-27T06:18:10.722Z,2.49
2019-02-27T06:19:10.729Z,2.49
2019-02-27T06:20:10.725Z,2.52
2019-02-27T06:21:13.373Z,2.52
2019-02-27T06:22:10.683Z,2.51
2019-02-27T06:23:10.671Z,2.49
2019-02-27T06:24:12.550Z,2.49
2019-02-27T06:25:10.653Z,2.46
2019-02-27T06:26:10.646Z,2.38
2019-02-27T06:27:10.655Z,2.38
2019-02-27T06:28:10.644Z,2.46
2019-02-27T06:29:10.618Z,2.51
2019-02-27T06:30:10.675Z,2.48
2019-02-27T06:31:10.611Z,2.51
2019-02-27T06:32:12.387Z,2.61
2019-02-27T06:33:11.868Z,2.56
2019-02-27T06:34:10.555Z,2.45
2019-02-27T06:35:10.526Z,2.48
2019-02-27T06:36:10.541Z,2.51
2019-02-27T06:37:10.580Z,2.63
2019-02-27T06:38:10.578Z,2.69
2019-02-27T06:39:10.603Z,2.61
2019-02-27T06:40:10.498Z,2.61
2019-02-27T06:41:10.495Z,2.67
2019-02-27T06:42:10.504Z,2.67
2019-02-27T06:43:10.466Z,2.67
2019-02-27T06:44:10.473Z,2.69
2019-02-27T06:45:12.696Z,2.69
2019-02-27T06:46:10.449Z,2.69
2019-02-27T06:47:10.441Z,2.67
2019-02-27T06:48:10.524Z,2.69
2019-02-27T06:49:10.427Z,2.89
2019-02-27T06:50:10.366Z,2.84
2019-02-27T06:51:10.369Z,2.77
2019-02-27T06:52:10.449Z,2.79
2019-02-27T06:53:10.406Z,2.79
2019-02-27T06:54:10.479Z,2.89
2019-02-27T06:55:10.367Z,2.98
2019-02-27T06:56:10.315Z,3.06
2019-02-27T06:57:10.312Z,3.06
2019-02-27T06:58:14.470Z,3.05
2019-02-27T06:59:10.301Z,3.16
2019-02-27T07:00:10.276Z,3.13
2019-02-27T07:01:19.424Z,3.24
2019-02-27T07:03:29.238Z,3.31
2019-02-27T07:04:15.148Z,3.27
2019-02-27T07:05:14.723Z,3.42
2019-02-27T07:06:14.736Z,3.34
2019-02-27T07:07:14.697Z,3.30
2019-02-27T07:08:14.663Z,2.92
2019-02-27T07:09:14.706Z,2.77
2019-02-27T07:10:19.469Z,2.81
2019-02-27T07:11:14.663Z,2.70
2019-02-27T07:12:14.647Z,2.77
2019-02-27T07:13:14.616Z,2.66
2019-02-27T07:14:14.622Z,2.79
2019-02-27T07:15:14.631Z,2.97
2019-02-27T07:16:14.583Z,3.03
2019-02-27T07:17:14.607Z,3.05
2019-02-27T07:18:14.592Z,3.07
2019-02-27T07:19:15.876Z,3.13
2019-02-27T07:20:14.557Z,3.13
2019-02-27T07:21:14.564Z,3.09
2019-02-27T07:22:14.538Z,3.25
2019-02-27T07:23:14.542Z,3.43
2019-02-27T07:24:14.533Z,3.44
2019-02-27T07:25:14.485Z,3.33
2019-02-27T07:26:15.801Z,3.46
2019-02-27T07:27:14.490Z,3.57
2019-02-27T07:28:14.458Z,3.61
2019-02-27T07:29:21.265Z,3.70
2019-02-27T07:30:14.466Z,3.68
2019-02-27T07:31:17.502Z,3.79
2019-02-27T07:32:14.409Z,3.82
2019-02-27T07:33:14.399Z,3.88
2019-02-27T07:34:14.954Z,4.03
2019-02-27T07:35:14.477Z,4.07
2019-02-27T07:36:14.410Z,4.14
2019-02-27T07:37:14.401Z,4.18
2019-02-27T07:38:14.399Z,4.26
2019-02-27T07:39:14.376Z,4.32
2019-02-27T07:40:14.409Z,4.32
2019-02-27T07:41:17.550Z,4.40
2019-02-27T07:42:14.387Z,4.52
2019-02-27T07:43:14.310Z,4.50
2019-02-27T07:44:14.308Z,4.47
2019-02-27T07:45:14.362Z,4.52
2019-02-27T07:46:14.325Z,4.62
2019-02-27T07:47:14.294Z,4.72
2019-02-27T07:48:14.251Z,4.80
2019-02-27T07:49:14.245Z,5.04
2019-02-27T07:50:14.214Z,5.05
2019-02-27T07:51:14.213Z,5.13
2019-02-27T07:52:14.365Z,5.09
2019-02-27T07:53:17.427Z,5.14
2019-02-27T07:54:14.183Z,5.14
2019-02-27T07:55:21.696Z,5.27
2019-02-27T07:56:14.153Z,5.35
2019-02-27T07:57:14.155Z,5.40
2019-02-27T07:58:14.178Z,5.40
2019-02-27T07:59:14.152Z,5.50
2019-02-27T08:00:15.189Z,5.55
2019-02-27T08:01:14.120Z,5.66
2019-02-27T08:02:14.111Z,5.71
2019-02-27T08:03:14.092Z,5.71
2019-02-27T08:04:14.086Z,5.73
2019-02-27T08:05:14.064Z,5.85
2019-02-27T08:06:14.084Z,5.91
2019-02-27T08:07:14.047Z,5.98
2019-02-27T08:08:14.034Z,6.06
2019-02-27T08:09:14.048Z,6.11
2019-02-27T08:10:14.033Z,6.14
2019-02-27T08:11:14.240Z,6.28
2019-02-27T08:12:14.021Z,6.35
2019-02-27T08:13:14.002Z,6.46
2019-02-27T08:14:13.979Z,6.36
2019-02-27T08:15:13.985Z,6.47
2019-02-27T08:16:13.990Z,6.40
2019-02-27T08:17:17.678Z,6.44
2019-02-27T08:18:14.051Z,6.50
2019-02-27T08:19:13.964Z,6.61
2019-02-27T08:20:13.926Z,6.62
2019-02-27T08:21:13.917Z,6.69
2019-02-27T08:22:13.914Z,6.81
2019-02-27T08:23:15.523Z,6.99
2019-02-27T08:24:14.433Z,7.12
2019-02-27T08:25:13.882Z,7.01
2019-02-27T08:26:13.899Z,6.90
2019-02-27T08:27:13.868Z,7.02
2019-02-27T08:28:13.878Z,7.01
2019-02-27T08:29:13.866Z,7.02
2019-02-27T08:30:13.845Z,6.97
2019-02-27T08:31:13.822Z,6.99
2019-02-27T08:32:13.856Z,7.01
2019-02-27T08:33:15.243Z,7.04
2019-02-27T08:34:13.797Z,7.09
2019-02-27T08:35:13.815Z,7.15
2019-02-27T08:36:13.809Z,7.20
2019-02-27T08:37:13.789Z,7.19
2019-02-27T08:38:13.763Z,7.31
2019-02-27T08:39:13.821Z,7.29
2019-02-27T08:40:13.780Z,7.27
2019-02-27T08:41:13.752Z,7.37
2019-02-27T08:42:15.731Z,7.29
2019-02-27T08:43:13.732Z,7.35
2019-02-27T08:44:13.769Z,7.37
2019-02-27T08:45:19.678Z,7.55
2019-02-27T08:46:13.692Z,7.53
2019-02-27T08:47:13.690Z,7.59
2019-02-27T08:48:17.114Z,7.69
2019-02-27T08:49:13.721Z,7.71
2019-02-27T08:50:13.933Z,7.79
2019-02-27T08:51:13.690Z,7.75
2019-02-27T08:52:16.260Z,7.75
2019-02-27T08:53:13.645Z,7.84
2019-02-27T08:54:13.657Z,7.81
2019-02-27T08:55:19.821Z,7.81
2019-02-27T08:56:13.630Z,7.97
2019-02-27T08:57:13.640Z,8.14
2019-02-27T08:58:13.651Z,8.10
2019-02-27T08:59:13.616Z,8.12
2019-02-27T09:00:14.343Z,8.18
2019-02-27T09:01:13.607Z,8.20
2019-02-27T09:02:13.589Z,8.18
2019-02-27T09:03:20.216Z,8.20
2019-02-27T09:04:13.562Z,8.20
2019-02-27T09:05:13.549Z,8.18
2019-02-27T09:06:13.534Z,8.21
2019-02-27T09:07:13.566Z,8.29
2019-02-27T09:08:13.577Z,8.39
2019-02-27T09:09:15.024Z,8.42
2019-02-27T09:10:13.538Z,8.50
2019-02-27T09:11:14.745Z,8.54
2019-02-27T09:12:14.061Z,8.66
2019-02-27T09:13:13.478Z,8.68
2019-02-27T09:14:13.474Z,8.66
2019-02-27T09:15:13.530Z,8.65
2019-02-27T09:16:13.476Z,8.60
2019-02-27T09:17:13.459Z,8.72
2019-02-27T09:18:13.450Z,8.72
2019-02-27T09:20:13.451Z,9.12
2019-02-27T09:21:13.425Z,9.05
2019-02-27T09:22:14.986Z,9.05
2019-02-27T09:23:13.446Z,9.16
2019-02-27T09:24:13.427Z,9.21
2019-02-27T09:25:13.443Z,9.27
2019-02-27T09:26:13.444Z,9.23
2019-02-27T09:27:13.374Z,9.27
2019-02-27T09:28:13.402Z,9.42
2019-02-27T09:29:16.099Z,9.42
2019-02-27T09:30:13.377Z,9.42
2019-02-27T09:31:13.381Z,9.49
2019-02-27T09:32:13.341Z,9.46
2019-02-27T09:33:13.346Z,9.49
2019-02-27T09:34:13.418Z,9.49
2019-02-27T09:35:13.334Z,9.52
2019-02-27T09:36:13.349Z,9.45
2019-02-27T09:37:13.917Z,9.49
2019-02-27T09:38:13.297Z,9.60
2019-02-27T09:39:13.283Z,9.66
2019-02-27T09:40:13.302Z,9.70
2019-02-27T09:41:13.276Z,9.75
2019-02-27T09:42:13.271Z,9.88
2019-02-27T09:43:13.259Z,9.99
2019-02-27T09:44:13.274Z,9.94
2019-02-27T09:45:13.251Z,10.06
2019-02-27T09:46:13.241Z,10.10
2019-02-27T09:47:13.228Z,10.01
2019-02-27T09:48:13.247Z,10.17
2019-02-27T09:49:13.251Z,10.15
2019-02-27T09:50:14.129Z,10.01
2019-02-27T09:51:13.210Z,10.17
2019-02-27T09:52:13.195Z,10.21
2019-02-27T09:53:13.182Z,10.26
2019-02-27T09:54:13.929Z,10.39
2019-02-27T09:55:13.168Z,10.34
2019-02-27T09:56:13.199Z,10.26
2019-02-27T09:57:13.180Z,10.32
2019-02-27T09:58:13.168Z,10.32
2019-02-27T09:59:13.146Z,10.42
2019-02-27T10:00:13.170Z,10.55
2019-02-27T10:01:13.139Z,10.36
2019-02-27T10:02:13.126Z,10.39
2019-02-27T10:03:13.146Z,10.30
2019-02-27T10:04:13.118Z,10.39
2019-02-27T10:05:13.111Z,10.39
2019-02-27T10:06:13.111Z,10.44
2019-02-27T10:07:14.581Z,10.52
2019-02-27T10:08:13.122Z,10.59
2019-02-27T10:09:13.087Z,10.52
2019-02-27T10:10:13.130Z,10.62
2019-02-27T10:11:13.091Z,10.84
2019-02-27T10:12:13.116Z,11.02
2019-02-27T10:13:13.063Z,11.20
2019-02-27T10:14:14.117Z,11.24
2019-02-27T10:15:13.041Z,11.02
2019-02-27T10:16:13.045Z,11.01
2019-02-27T10:17:13.036Z,11.06
2019-02-27T10:18:13.064Z,11.03
2019-02-27T10:19:13.064Z,11.11
2019-02-27T10:20:13.022Z,11.06
2019-02-27T10:21:13.025Z,11.03
2019-02-27T10:22:12.995Z,11.02
2019-02-27T10:23:12.997Z,11.09
2019-02-27T10:24:12.982Z,11.21
2019-02-27T10:25:12.996Z,11.28
2019-02-27T10:26:13.035Z,11.31
2019-02-27T10:27:12.987Z,11.27
2019-02-27T10:28:12.966Z,11.28
2019-02-27T10:29:13.423Z,11.35
2019-02-27T10:30:12.953Z,11.25
2019-02-27T10:31:12.963Z,11.32
2019-02-27T10:32:12.937Z,11.28
2019-02-27T10:33:12.962Z,11.29
2019-02-27T10:34:14.579Z,11.29
2019-02-27T10:35:12.922Z,11.34
2019-02-27T10:36:12.908Z,11.32
2019-02-27T10:37:15.707Z,11.46
2019-02-27T10:38:12.903Z,11.35
2019-02-27T10:39:12.904Z,11.25
2019-02-27T10:40:12.888Z,11.20
2019-02-27T10:41:12.882Z,11.25
2019-02-27T10:42:12.879Z,11.24
2019-02-27T10:43:12.869Z,11.24
2019-02-27T10:44:12.874Z,11.27
2019-02-27T10:45:12.891Z,11.35
2019-02-27T10:46:12.867Z,11.53
2019-02-27T10:47:12.880Z,11.97
2019-02-27T10:48:13.396Z,12.08
2019-02-27T10:49:12.840Z,12.09
2019-02-27T10:50:12.830Z,12.15
2019-02-27T10:51:12.848Z,12.12
2019-02-27T10:52:12.823Z,12.21
2019-02-27T10:53:12.835Z,12.39
2019-02-27T10:54:12.817Z,12.38
2019-02-27T10:55:14.187Z,12.52
2019-02-27T10:56:12.865Z,12.69
2019-02-27T10:57:12.792Z,12.54
2019-02-27T10:58:13.743Z,12.57
2019-02-27T10:59:12.780Z,12.54
2019-02-27T11:00:12.777Z,12.51
2019-02-27T11:01:12.779Z,12.67
2019-02-27T11:02:13.309Z,12.48
2019-02-27T11:03:12.784Z,12.71
2019-02-27T11:04:12.754Z,12.81
2019-02-27T11:05:15.127Z,12.82
2019-02-27T11:06:12.774Z,12.78
2019-02-27T11:07:15.510Z,12.77
2019-02-27T11:08:12.757Z,12.81
2019-02-27T11:09:12.733Z,12.75
2019-02-27T11:10:12.724Z,12.70
2019-02-27T11:11:13.165Z,12.69
2019-02-27T11:12:12.744Z,12.70
2019-02-27T11:13:12.816Z,12.67
2019-02-27T11:14:12.730Z,12.60
2019-02-27T11:15:12.708Z,12.57
2019-02-27T11:16:12.699Z,12.70
2019-02-27T11:17:12.692Z,13.04
2019-02-27T11:18:12.683Z,13.15
2019-02-27T11:19:14.152Z,13.07
2019-02-27T11:20:12.677Z,13.14
2019-02-27T11:21:12.669Z,13.11
2019-02-27T11:22:12.711Z,13.20
2019-02-27T11:23:12.686Z,13.40
2019-02-27T11:24:14.486Z,13.36
2019-02-27T11:25:12.674Z,13.33
2019-02-27T11:26:12.667Z,13.29
2019-02-27T11:27:12.654Z,13.36
2019-02-27T11:28:12.637Z,13.33
2019-02-27T11:29:12.654Z,13.36
2019-02-27T11:30:12.665Z,13.56
2019-02-27T11:31:12.659Z,13.70
2019-02-27T11:32:12.613Z,13.77
2019-02-27T11:33:24.727Z,13.73
2019-02-27T11:34:12.618Z,13.80
2019-02-27T11:35:12.612Z,13.84
2019-02-27T11:36:12.614Z,13.87
2019-02-27T11:37:13.813Z,13.96
2019-02-27T11:38:12.613Z,13.98
2019-02-27T11:39:12.621Z,14.09
2019-02-27T11:40:12.581Z,14.04
2019-02-27T11:41:14.960Z,14.02
2019-02-27T11:42:12.572Z,13.96
2019-02-27T11:43:12.578Z,13.95
2019-02-27T11:44:14.333Z,14.09
2019-02-27T11:45:12.563Z,14.01
2019-02-27T11:46:12.553Z,14.07
2019-02-27T11:47:12.575Z,14.02
2019-02-27T11:48:12.581Z,14.09
2019-02-27T11:49:12.537Z,14.24
2019-02-27T11:50:14.687Z,14.43
2019-02-27T11:51:13.932Z,14.62
2019-02-27T11:52:12.524Z,14.62
2019-02-27T11:53:12.521Z,14.71
2019-02-27T11:54:14.516Z,14.74
2019-02-27T11:55:14.843Z,14.68
2019-02-27T11:56:12.505Z,14.68
2019-02-27T11:57:12.508Z,14.71
2019-02-27T11:58:12.502Z,14.81
2019-02-27T11:59:12.988Z,14.80
2019-02-27T12:00:13.677Z,14.64
2019-02-27T12:01:12.485Z,14.74
2019-02-27T12:02:12.512Z,14.91
2019-02-27T12:03:12.493Z,14.95
2019-02-27T12:04:12.497Z,14.91
2019-02-27T12:05:12.502Z,14.80
2019-02-27T12:06:12.485Z,14.78
2019-02-27T12:07:14.918Z,14.61
2019-02-27T12:08:12.465Z,14.93
2019-02-27T12:09:12.492Z,15.13
2019-02-27T12:10:12.558Z,15.27
2019-02-27T12:11:14.040Z,15.27
2019-02-27T12:12:12.477Z,15.35
2019-02-27T12:13:12.468Z,15.33
2019-02-27T12:14:12.467Z,15.26
2019-02-27T12:15:12.462Z,15.35
2019-02-27T12:16:12.465Z,15.57
2019-02-27T12:17:12.454Z,15.56
2019-02-27T12:18:12.424Z,15.48
2019-02-27T12:19:12.457Z,15.45
2019-02-27T12:20:12.436Z,15.45
2019-02-27T12:21:12.442Z,15.52
2019-02-27T12:22:12.462Z,15.57
2019-02-27T12:23:12.425Z,15.31
2019-02-27T12:24:12.413Z,15.27
2019-02-27T12:25:12.432Z,15.67
2019-02-27T12:26:12.443Z,15.88
2019-02-27T12:27:24.437Z,15.78
2019-02-27T12:28:12.419Z,15.88
2019-02-27T12:29:12.385Z,15.92
2019-02-27T12:30:12.387Z,15.92
2019-02-27T12:31:14.379Z,15.84
2019-02-27T12:32:12.393Z,15.76
2019-02-27T12:33:12.406Z,15.76
2019-02-27T12:34:12.424Z,15.70
2019-02-27T12:35:12.375Z,15.89
2019-02-27T12:36:12.362Z,15.89
2019-02-27T12:37:23.805Z,15.78
2019-02-27T12:38:12.363Z,15.68
2019-02-27T12:39:15.267Z,15.70
2019-02-27T12:40:12.363Z,15.93
2019-02-27T12:41:12.364Z,16.18
2019-02-27T12:42:12.351Z,16.25
2019-02-27T12:43:17.432Z,16.25
2019-02-27T12:44:12.381Z,16.16
2019-02-27T12:45:12.427Z,16.42
2019-02-27T12:46:12.364Z,16.37
2019-02-27T12:47:12.370Z,16.34
2019-02-27T12:48:13.274Z,16.34
2019-02-27T12:49:12.326Z,16.42
2019-02-27T12:50:12.363Z,16.34
2019-02-27T12:51:12.368Z,16.52
2019-02-27T12:52:12.322Z,16.58
2019-02-27T12:53:12.349Z,16.67
2019-02-27T12:54:12.317Z,16.59
2019-02-27T12:55:12.345Z,16.55
2019-02-27T12:56:12.317Z,16.49
2019-02-27T12:57:12.309Z,16.68
2019-02-27T12:58:13.463Z,16.77
2019-02-27T12:59:12.317Z,16.71
2019-02-27T13:00:12.327Z,16.74
2019-02-27T13:01:16.196Z,16.83
2019-02-27T13:02:12.298Z,16.85
2019-02-27T13:03:12.300Z,16.89
2019-02-27T13:04:16.100Z,16.86
2019-02-27T13:05:12.302Z,16.83
2019-02-27T13:06:12.297Z,16.86
2019-02-27T13:07:12.347Z,16.93
2019-02-27T13:08:12.291Z,16.95
2019-02-27T13:09:12.282Z,17.06
2019-02-27T13:10:13.325Z,17.20
2019-02-27T13:11:12.290Z,17.14
2019-02-27T13:12:14.913Z,17.14
2019-02-27T13:13:12.293Z,17.04
2019-02-27T13:14:12.326Z,16.98
2019-02-27T13:15:12.313Z,16.89
2019-02-27T13:16:14.504Z,16.90
2019-02-27T13:17:12.337Z,16.93
2019-02-27T13:18:12.339Z,16.89
2019-02-27T13:19:12.348Z,17.06
2019-02-27T13:20:12.516Z,17.29
2019-02-27T13:21:12.256Z,17.62
2019-02-27T13:22:12.279Z,17.38
2019-02-27T13:23:12.277Z,17.29
2019-02-27T13:24:15.098Z,17.29
2019-02-27T13:25:12.286Z,17.47
2019-02-27T13:26:12.251Z,17.57
2019-02-27T13:27:12.273Z,17.59
2019-02-27T13:28:14.565Z,17.53
2019-02-27T13:29:12.279Z,17.63
2019-02-27T13:30:12.240Z,17.53
2019-02-27T13:31:13.692Z,17.50
2019-02-27T13:32:12.239Z,17.69
2019-02-27T13:33:12.254Z,17.73